createdAt,value
2023-02-25T00:00:33.369Z,3.30
2023-02-25T00:03:24.009Z,3.20
2023-02-25T00:06:15.084Z,3.00
2023-02-25T00:09:02.844Z,2.90
2023-02-25T00:11:51.280Z,3.00
2023-02-25T00:14:40.833Z,3.00
2023-02-25T00:17:28.777Z,3.00
2023-02-25T00:20:20.907Z,3.10
2023-02-25T00:23:08.996Z,3.00
2023-02-25T00:25:59.968Z,3.00
2023-02-25T00:28:48.521Z,3.00
2023-02-25T00:31:38.354Z,3.00
2023-02-25T00:34:26.375Z,3.00
2023-02-25T00:37:16.711Z,3.10
2023-02-25T00:40:08.907Z,3.00
2023-02-25T00:42:56.383Z,3.00
2023-02-25T00:45:44.189Z,2.90
2023-02-25T00:48:33.542Z,2.90
2023-02-25T00:51:23.434Z,2.80
2023-02-25T00:54:12.129Z,2.80
2023-02-25T00:57:00.021Z,2.80
2023-02-25T00:59:49.619Z,2.80
2023-02-25T01:02:37.047Z,2.80
2023-02-25T01:05:26.196Z,2.80
2023-02-25T01:08:13.977Z,3.00
2023-02-25T01:11:02.733Z,3.10
2023-02-25T01:13:50.740Z,3.20
2023-02-25T01:16:39.050Z,3.30
2023-02-25T01:19:27.182Z,3.30
2023-02-25T01:22:14.730Z,3.40
2023-02-25T01:25:02.163Z,3.30
2023-02-25T01:27:53.551Z,3.30
2023-02-25T01:30:42.771Z,3.20
2023-02-25T01:33:29.901Z,3.10
2023-02-25T01:36:20.674Z,3.10
2023-02-25T01:39:11.104Z,3.00
2023-02-25T01:42:00.050Z,3.10
2023-02-25T01:45:05.879Z,3.10
2023-02-25T01:47:56.489Z,5.10
2023-02-25T01:50:48.304Z,3.10
2023-02-25T01:53:38.584Z,3.20
2023-02-25T01:56:27.767Z,3.30
2023-02-25T01:59:20.137Z,3.30
2023-02-25T02:02:09.191Z,3.30
2023-02-25T02:05:00.147Z,3.30
2023-02-25T02:07:48.636Z,3.60
2023-02-25T02:10:37.450Z,3.30
2023-02-25T02:13:28.161Z,3.20
2023-02-25T02:16:25.925Z,3.20
2023-02-25T02:19:22.844Z,3.10
2023-02-25T02:22:14.648Z,3.00
2023-02-25T02:25:19.684Z,3.00
2023-02-25T02:28:24.861Z,2.90
2023-02-25T02:31:22.120Z,2.70
2023-02-25T02:34:17.119Z,2.70
2023-02-25T02:37:14.588Z,2.60
2023-02-25T02:40:20.457Z,2.70
2023-02-25T02:43:10.796Z,3.00
2023-02-25T02:46:00.920Z,2.80
2023-02-25T02:48:55.410Z,2.90
2023-02-25T02:51:47.921Z,2.80
2023-02-25T02:54:37.442Z,2.90
2023-02-25T02:57:28.468Z,2.90
2023-02-25T03:00:17.976Z,3.00
2023-02-25T03:03:09.630Z,3.10
2023-02-25T03:05:59.354Z,3.10
2023-02-25T03:08:49.529Z,3.20
2023-02-25T03:11:39.713Z,3.20
2023-02-25T03:14:27.163Z,3.20
2023-02-25T03:17:16.154Z,3.30
2023-02-25T03:20:08.428Z,3.30
2023-02-25T03:23:01.575Z,3.30
2023-02-25T03:25:52.193Z,3.40
2023-02-25T03:28:42.898Z,3.30
2023-02-25T03:31:32.919Z,3.30
2023-02-25T03:34:22.164Z,3.30
2023-02-25T03:37:15.682Z,3.30
2023-02-25T03:40:10.909Z,3.30
2023-02-25T03:43:02.057Z,3.30
2023-02-25T03:45:50.338Z,3.30
2023-02-25T03:48:39.450Z,3.30
2023-02-25T03:51:32.318Z,3.30
2023-02-25T03:54:20.086Z,3.30
2023-02-25T03:57:10.647Z,3.30
2023-02-25T03:59:57.928Z,3.60
2023-02-25T04:02:48.863Z,2.80
2023-02-25T04:05:37.812Z,3.40
2023-02-25T04:08:25.657Z,3.30
2023-02-25T04:11:13.525Z,3.30
2023-02-25T04:14:04.713Z,3.30
2023-02-25T04:16:52.623Z,3.30
2023-02-25T04:19:41.361Z,3.30
2023-02-25T04:22:29.167Z,3.30
2023-02-25T04:25:17.028Z,3.30
2023-02-25T04:28:07.584Z,2.10
2023-02-25T04:30:57.894Z,3.30
2023-02-25T04:33:49.464Z,3.20
2023-02-25T04:36:37.461Z,3.30
2023-02-25T04:39:24.737Z,3.40
2023-02-25T04:42:12.905Z,3.40
2023-02-25T04:45:00.990Z,3.40
2023-02-25T04:47:50.440Z,3.50
2023-02-25T04:50:38.803Z,3.50
2023-02-25T04:53:27.139Z,3.60
2023-02-25T04:56:15.558Z,3.50
2023-02-25T04:59:03.000Z,3.50
2023-02-25T05:01:50.966Z,3.60
2023-02-25T05:04:39.940Z,3.60
2023-02-25T05:07:27.386Z,3.70
2023-02-25T05:10:17.382Z,3.60
2023-02-25T05:13:05.911Z,3.50
2023-02-25T05:15:53.178Z,3.70
2023-02-25T05:18:41.181Z,3.70
2023-02-25T05:21:31.028Z,3.70
2023-02-25T05:24:18.999Z,5.80
2023-02-25T05:27:06.885Z,3.80
2023-02-25T05:29:56.267Z,3.80
2023-02-25T05:32:44.147Z,3.70
2023-02-25T05:35:32.679Z,3.70
2023-02-25T05:38:22.154Z,3.70
2023-02-25T05:41:10.943Z,3.70
2023-02-25T05:43:58.746Z,3.70
2023-02-25T05:46:46.468Z,3.60
2023-02-25T05:49:34.542Z,3.70
2023-02-25T05:52:22.496Z,3.70
2023-02-25T05:55:12.788Z,3.70
2023-02-25T05:58:00.264Z,3.70
2023-02-25T06:00:48.527Z,3.50
2023-02-25T06:03:37.373Z,3.70
2023-02-25T06:06:25.411Z,3.70
2023-02-25T06:09:16.426Z,3.60
2023-02-25T06:12:06.070Z,3.70
2023-02-25T06:14:56.870Z,3.70
2023-02-25T06:17:44.343Z,3.70
2023-02-25T06:20:32.091Z,3.10
2023-02-25T06:23:19.694Z,3.70
2023-02-25T06:26:09.375Z,3.90
2023-02-25T06:29:01.108Z,3.70
2023-02-25T06:31:49.260Z,3.90
2023-02-25T06:34:36.477Z,3.80
2023-02-25T06:37:27.019Z,3.70
2023-02-25T06:40:17.374Z,4.10
2023-02-25T06:43:04.803Z,3.60
2023-02-25T06:45:53.692Z,3.60
2023-02-25T06:48:41.659Z,3.60
2023-02-25T06:51:29.216Z,3.60
2023-02-25T06:54:17.777Z,3.50
2023-02-25T06:57:05.290Z,4.00
2023-02-25T06:59:53.483Z,3.50
2023-02-25T07:02:43.470Z,3.50
2023-02-25T07:05:32.014Z,3.50
2023-02-25T07:08:20.331Z,3.50
2023-02-25T07:11:13.432Z,3.60
2023-02-25T07:14:03.992Z,3.60
2023-02-25T07:16:52.393Z,4.10
2023-02-25T07:19:41.857Z,3.70
2023-02-25T07:22:29.842Z,4.20
2023-02-25T07:25:19.171Z,3.80
2023-02-25T07:28:06.567Z,3.90
2023-02-25T07:30:53.912Z,3.80
2023-02-25T07:33:41.896Z,4.00
2023-02-25T07:36:33.211Z,4.10
2023-02-25T07:39:21.899Z,4.10
2023-02-25T07:42:09.871Z,4.20
2023-02-25T07:44:58.515Z,4.30
2023-02-25T07:47:47.107Z,4.30
2023-02-25T07:50:36.473Z,4.20
2023-02-25T07:53:25.616Z,4.80
2023-02-25T07:56:16.154Z,4.10
2023-02-25T07:59:03.566Z,4.10
2023-02-25T08:01:50.948Z,4.00
2023-02-25T08:04:39.035Z,4.00
2023-02-25T08:07:27.910Z,3.90
2023-02-25T08:10:16.895Z,4.90
2023-02-25T08:13:05.554Z,4.00
2023-02-25T08:15:52.901Z,4.00
2023-02-25T08:18:42.868Z,3.90
2023-02-25T08:21:31.040Z,3.90
2023-02-25T08:24:20.824Z,4.00
2023-02-25T08:27:11.920Z,4.10
2023-02-25T08:30:00.156Z,4.30
2023-02-25T08:32:48.586Z,4.60
2023-02-25T08:35:37.106Z,4.50
2023-02-25T08:38:24.425Z,4.60
2023-02-25T08:41:12.272Z,4.70
2023-02-25T08:44:02.422Z,4.70
2023-02-25T08:46:51.595Z,3.20
2023-02-25T08:49:40.277Z,4.70
2023-02-25T08:52:35.184Z,4.70
2023-02-25T08:55:24.927Z,5.00
2023-02-25T08:58:12.399Z,4.90
2023-02-25T09:01:07.417Z,4.90
2023-02-25T09:03:55.146Z,5.10
2023-02-25T09:06:43.255Z,5.30
2023-02-25T09:09:32.071Z,5.30
2023-02-25T09:12:24.543Z,5.60
2023-02-25T09:15:13.699Z,5.80
2023-02-25T09:18:02.657Z,6.00
2023-02-25T09:20:51.454Z,6.00
2023-02-25T09:23:39.272Z,4.20
2023-02-25T09:26:27.058Z,5.90
2023-02-25T09:29:17.483Z,7.60
2023-02-25T09:32:05.546Z,6.20
2023-02-25T09:34:54.421Z,6.00
2023-02-25T09:37:47.588Z,6.00
2023-02-25T09:40:36.249Z,6.20
2023-02-25T09:43:26.345Z,6.50
2023-02-25T09:46:18.923Z,6.20
2023-02-25T09:49:14.692Z,6.10
2023-02-25T09:52:06.182Z,6.10
2023-02-25T09:54:56.194Z,6.70
2023-02-25T09:57:45.634Z,6.10
2023-02-25T10:00:37.515Z,5.90
2023-02-25T10:03:28.180Z,5.90
2023-02-25T10:06:19.704Z,6.40
2023-02-25T10:09:17.519Z,6.20
2023-02-25T10:12:10.880Z,6.60
2023-02-25T10:15:06.210Z,6.20
2023-02-25T10:18:03.775Z,6.30
2023-02-25T10:20:57.896Z,6.40
2023-02-25T10:23:54.570Z,6.70
2023-02-25T10:26:46.634Z,7.00
2023-02-25T10:29:38.389Z,7.10
2023-02-25T10:32:27.392Z,7.10
2023-02-25T10:35:17.779Z,5.50
2023-02-25T10:38:06.182Z,7.10
2023-02-25T10:40:55.639Z,7.10
2023-02-25T10:43:44.873Z,6.80
2023-02-25T10:46:36.141Z,6.60
2023-02-25T10:49:25.503Z,6.60
2023-02-25T10:52:15.977Z,6.60
2023-02-25T10:55:03.563Z,6.50
2023-02-25T10:57:51.720Z,6.60
2023-02-25T11:00:44.474Z,6.80
2023-02-25T11:03:33.654Z,7.00
2023-02-25T11:06:24.083Z,7.00
2023-02-25T11:09:26.875Z,8.80
2023-02-25T11:12:20.304Z,6.90
2023-02-25T11:15:19.756Z,6.90
2023-02-25T11:18:17.678Z,9.60
2023-02-25T11:21:08.479Z,5.20
2023-02-25T11:23:56.829Z,7.40
2023-02-25T11:26:46.693Z,7.60
2023-02-25T11:29:38.026Z,7.60
2023-02-25T11:32:26.413Z,7.80
2023-02-25T11:35:22.891Z,8.80
2023-02-25T11:38:18.208Z,7.70
2023-02-25T11:41:15.513Z,7.60
2023-02-25T11:44:12.996Z,7.00
2023-02-25T11:47:06.400Z,6.80
2023-02-25T11:50:06.884Z,7.20
2023-02-25T11:52:58.644Z,7.50
2023-02-25T11:55:53.916Z,6.80
2023-02-25T11:58:51.292Z,6.90
2023-02-25T12:01:48.336Z,7.10
2023-02-25T12:04:50.631Z,6.80
2023-02-25T12:08:11.920Z,6.70
2023-02-25T12:11:21.374Z,6.60
2023-02-25T12:14:18.003Z,6.50
2023-02-25T12:17:26.718Z,6.40
2023-02-25T12:20:24.557Z,3.80
2023-02-25T12:23:36.702Z,6.60
2023-02-25T12:26:35.527Z,6.90
2023-02-25T12:29:34.516Z,7.20
2023-02-25T12:32:35.453Z,7.20
2023-02-25T12:35:44.250Z,7.70
2023-02-25T12:38:58.667Z,7.70
2023-02-25T12:41:48.400Z,8.00
2023-02-25T12:44:45.961Z,10.30
2023-02-25T12:47:42.632Z,6.90
2023-02-25T12:50:39.423Z,6.10
2023-02-25T12:53:32.844Z,5.80
2023-02-25T12:56:27.004Z,8.10
2023-02-25T12:59:32.370Z,5.00
2023-02-25T13:02:29.691Z,5.30
2023-02-25T13:05:27.073Z,5.10
2023-02-25T13:08:23.461Z,5.30
2023-02-25T13:11:16.751Z,5.40
2023-02-25T13:14:14.580Z,5.20
2023-02-25T13:17:12.208Z,6.10
2023-02-25T13:20:19.955Z,6.60
2023-02-25T13:23:15.461Z,7.00
2023-02-25T13:26:10.666Z,7.10
2023-02-25T13:29:10.748Z,8.10
2023-02-25T13:32:11.629Z,6.90
2023-02-25T13:35:10.460Z,6.90
2023-02-25T13:38:05.654Z,9.80
2023-02-25T13:41:00.520Z,7.10
2023-02-25T13:43:59.534Z,7.30
2023-02-25T13:46:51.165Z,7.70
2023-02-25T13:49:53.161Z,7.80
2023-02-25T13:52:50.976Z,8.20
2023-02-25T13:55:42.835Z,7.90
2023-02-25T13:58:37.495Z,8.00
2023-02-25T14:01:53.195Z,7.80
2023-02-25T14:04:56.244Z,7.90
2023-02-25T14:08:05.020Z,7.90
2023-02-25T14:11:01.419Z,8.10
2023-02-25T14:13:56.064Z,8.30
2023-02-25T14:16:47.660Z,8.20
2023-02-25T14:19:39.548Z,8.20
2023-02-25T14:22:37.618Z,8.00
2023-02-25T14:25:33.808Z,8.60
2023-02-25T14:28:29.759Z,9.10
2023-02-25T14:31:21.961Z,8.60
2023-02-25T14:34:16.775Z,7.90
2023-02-25T14:37:22.264Z,9.40
2023-02-25T14:40:23.491Z,7.70
2023-02-25T14:43:22.267Z,6.70
2023-02-25T14:46:15.802Z,6.10
2023-02-25T14:49:07.300Z,8.50
2023-02-25T14:52:25.418Z,5.80
2023-02-25T14:55:29.082Z,6.40
2023-02-25T14:58:39.075Z,7.00
2023-02-25T15:01:39.840Z,5.90
2023-02-25T15:04:43.929Z,7.20
2023-02-25T15:07:40.812Z,7.40
2023-02-25T15:10:39.823Z,7.50
2023-02-25T15:13:37.453Z,7.10
2023-02-25T15:16:42.619Z,6.50
2023-02-25T15:19:45.129Z,6.10
2023-02-25T15:22:33.452Z,6.00
2023-02-25T15:25:35.687Z,6.00
2023-02-25T15:28:36.809Z,6.00
2023-02-25T15:31:30.078Z,6.40
2023-02-25T15:34:37.920Z,8.20
2023-02-25T15:37:31.976Z,6.10
2023-02-25T15:40:40.348Z,6.70
2023-02-25T15:43:41.183Z,6.30
2023-02-25T15:46:45.509Z,6.80
2023-02-25T15:49:34.537Z,6.70
2023-02-25T15:52:41.320Z,6.40
2023-02-25T15:55:36.170Z,7.80
2023-02-25T15:58:43.907Z,6.20
2023-02-25T16:01:42.611Z,4.20
2023-02-25T16:04:41.919Z,6.10
2023-02-25T16:07:33.723Z,6.30
2023-02-25T16:10:25.373Z,6.30
2023-02-25T16:13:17.041Z,6.30
2023-02-25T16:16:05.341Z,6.30
2023-02-25T16:18:53.662Z,6.30
2023-02-25T16:21:42.449Z,6.10
2023-02-25T16:24:30.268Z,6.00
2023-02-25T16:27:22.868Z,5.90
2023-02-25T16:30:15.239Z,5.80
2023-02-25T16:33:06.408Z,6.60
2023-02-25T16:36:06.922Z,5.60
2023-02-25T16:38:58.280Z,5.60
2023-02-25T16:41:45.952Z,5.50
2023-02-25T16:44:38.240Z,5.70
2023-02-25T16:47:29.630Z,5.40
2023-02-25T16:50:17.377Z,5.40
2023-02-25T16:53:05.814Z,5.40
2023-02-25T16:55:59.091Z,5.30
2023-02-25T16:58:58.824Z,5.30
2023-02-25T17:01:50.545Z,5.30
2023-02-25T17:04:39.859Z,5.30
2023-02-25T17:07:28.758Z,5.60
2023-02-25T17:10:24.515Z,5.10
2023-02-25T17:13:16.049Z,4.40
2023-02-25T17:16:05.251Z,4.90
2023-02-25T17:18:54.883Z,5.90
2023-02-25T17:21:46.637Z,4.70
2023-02-25T17:24:35.114Z,4.60
2023-02-25T17:27:23.031Z,4.50
2023-02-25T17:30:25.636Z,4.60
2023-02-25T17:33:25.777Z,4.70
2023-02-25T17:36:15.520Z,4.50
2023-02-25T17:39:05.001Z,4.50
2023-02-25T17:41:53.433Z,4.40
2023-02-25T17:44:45.264Z,4.40
2023-02-25T17:47:34.132Z,4.60
2023-02-25T17:50:25.759Z,4.30
2023-02-25T17:53:26.795Z,4.10
2023-02-25T17:56:25.026Z,4.10
2023-02-25T17:59:27.765Z,4.00
2023-02-25T18:02:37.412Z,4.00
2023-02-25T18:05:26.058Z,4.00
2023-02-25T18:08:18.793Z,4.00
2023-02-25T18:11:21.539Z,4.00
2023-02-25T18:14:25.485Z,4.00
2023-02-25T18:17:14.339Z,4.10
2023-02-25T18:20:03.519Z,3.10
2023-02-25T18:22:50.868Z,4.10
2023-02-25T18:25:41.976Z,4.60
2023-02-25T18:28:30.208Z,4.00
2023-02-25T18:31:19.545Z,3.90
2023-02-25T18:34:07.596Z,3.80
2023-02-25T18:36:55.376Z,5.80
2023-02-25T18:39:43.259Z,3.80
2023-02-25T18:42:31.021Z,3.90
2023-02-25T18:45:21.214Z,3.70
2023-02-25T18:48:12.532Z,3.70
2023-02-25T18:51:00.355Z,3.50
2023-02-25T18:53:47.998Z,4.90
2023-02-25T18:56:35.775Z,3.50
2023-02-25T18:59:23.407Z,3.50
2023-02-25T19:02:20.810Z,3.40
2023-02-25T19:05:10.633Z,3.40
2023-02-25T19:07:58.282Z,3.40
2023-02-25T19:10:46.800Z,3.30
2023-02-25T19:13:36.109Z,3.30
2023-02-25T19:16:24.080Z,3.30
2023-02-25T19:19:14.210Z,3.30
2023-02-25T19:22:03.894Z,3.20
2023-02-25T19:24:52.893Z,3.70
2023-02-25T19:27:41.333Z,3.20
2023-02-25T19:30:30.847Z,3.10
2023-02-25T19:33:18.931Z,3.10
2023-02-25T19:36:08.790Z,3.00
2023-02-25T19:38:57.836Z,3.00
2023-02-25T19:41:45.830Z,2.90
2023-02-25T19:44:33.802Z,3.00
2023-02-25T19:47:21.756Z,3.00
2023-02-25T19:50:11.746Z,2.80
2023-02-25T19:53:02.093Z,2.80
2023-02-25T19:55:50.929Z,2.80
2023-02-25T19:58:38.399Z,2.80
2023-02-25T20:01:26.360Z,2.80
2023-02-25T20:04:14.153Z,2.80
2023-02-25T20:07:01.677Z,2.60
2023-02-25T20:09:49.992Z,2.50
2023-02-25T20:12:38.727Z,2.50
2023-02-25T20:15:26.508Z,2.40
2023-02-25T20:18:14.001Z,2.50
2023-02-25T20:21:02.328Z,2.40
2023-02-25T20:23:50.078Z,2.10
2023-02-25T20:26:38.680Z,2.80
2023-02-25T20:29:27.669Z,2.20
2023-02-25T20:32:15.713Z,2.20
2023-02-25T20:35:03.680Z,2.70
2023-02-25T20:37:55.490Z,2.20
2023-02-25T20:40:44.064Z,2.10
2023-02-25T20:43:32.351Z,2.10
2023-02-25T20:46:24.828Z,1.50
2023-02-25T20:49:16.865Z,1.80
2023-02-25T20:52:07.809Z,1.70
2023-02-25T20:54:55.439Z,1.70
2023-02-25T20:57:42.752Z,1.40
2023-02-25T21:00:30.501Z,1.40
2023-02-25T21:03:19.450Z,1.10
2023-02-25T21:06:07.656Z,1.00
2023-02-25T21:08:55.876Z,0.10
2023-02-25T21:11:43.443Z,0.70
2023-02-25T21:14:31.046Z,0.60
2023-02-25T21:17:19.612Z,0.70
2023-02-25T21:20:08.942Z,0.00
2023-02-25T21:22:56.583Z,3.30
2023-02-25T21:25:43.988Z,0.60
2023-02-25T21:28:31.948Z,0.40
2023-02-25T21:31:19.787Z,0.70
2023-02-25T21:34:11.833Z,0.30
2023-02-25T21:37:00.819Z,0.30
2023-02-25T21:39:49.531Z,0.30
2023-02-25T21:42:36.872Z,0.30
2023-02-25T21:45:25.215Z,0.30
2023-02-25T21:48:13.598Z,0.30
2023-02-25T21:51:01.441Z,0.20
2023-02-25T21:53:56.677Z,0.20
2023-02-25T21:56:44.839Z,0.10
2023-02-25T21:59:32.687Z,0.10
2023-02-25T22:02:20.230Z,0.10
2023-02-25T22:05:08.405Z,0.00
2023-02-25T22:07:57.305Z,0.00
2023-02-25T22:10:49.315Z,-0.10
2023-02-25T22:13:36.878Z,-0.10
2023-02-25T22:16:25.139Z,-0.10
2023-02-25T22:19:12.858Z,-0.10
2023-02-25T22:22:01.220Z,-0.10
2023-02-25T22:24:48.835Z,-0.20
2023-02-25T22:27:38.104Z,-0.20
2023-02-25T22:30:25.740Z,0.20
2023-02-25T22:33:14.193Z,-0.40
2023-02-25T22:36:05.715Z,-0.30
2023-02-25T22:38:53.994Z,-0.50
2023-02-25T22:41:41.592Z,-0.50
2023-02-25T22:44:31.036Z,-0.50
2023-02-25T22:47:18.737Z,-0.60
2023-02-25T22:50:06.681Z,-0.60
2023-02-25T22:52:54.582Z,-0.60
2023-02-25T22:55:41.892Z,-1.20
2023-02-25T22:58:30.196Z,-0.70
2023-02-25T23:01:21.165Z,-0.70
2023-02-25T23:04:09.216Z,-0.80
2023-02-25T23:06:57.315Z,-0.80
2023-02-25T23:09:45.987Z,-0.90
2023-02-25T23:12:33.463Z,-2.00
2023-02-25T23:15:21.056Z,-0.60
2023-02-25T23:18:10.672Z,-0.80
2023-02-25T23:20:59.028Z,-0.90
2023-02-25T23:23:48.447Z,-1.00
2023-02-25T23:26:38.929Z,-1.00
2023-02-25T23:29:26.611Z,-1.10
2023-02-25T23:32:14.462Z,-1.10
2023-02-25T23:35:03.171Z,-1.00
2023-02-25T23:37:50.512Z,-0.90
2023-02-25T23:40:38.042Z,-1.00
2023-02-25T23:43:26.877Z,-1.00
2023-02-25T23:46:14.192Z,-1.00
2023-02-25T23:49:02.894Z,-1.00
2023-02-25T23:51:52.879Z,-1.10
2023-02-25T23:54:40.513Z,-1.00
2023-02-25T23:57:29.143Z,-1.00
